Stena Atlantica — ZCPR7 — position and weather

sailwx.info

Track history (hours):
 
Tides and Currents Weather Stations Pressure Air Temp Water Temp Dewpoint Dewpoint Depression Visibility Wind Speed Wind Dir Waves Ship Positions

Stena Atlantica

Last reported at 2014-Oct-24 17:33 UTC. Time now 2014-Oct-24 18:05 UTC.
Position N 60°01' E 026°32'.

Length 245 m; draft 14.9 m.

Type: Tanker. MMSI: 319161000.

Date/timePositionNaut miles runAvg speedWind from/ knotsBaromVisibWave heightAir tempDewpointWater temp
2014-Oct-24 17:33N 60°01' E 026°32'1312.0
2014-Oct-24 16:30N 59°60' E 026°57'  
2014-Oct-21 20:21N 60°01' E 027°15'1111.0
2014-Oct-21 19:23N 59°58' E 026°55'1011.5
2014-Oct-21 18:33N 59°59' E 026°35'1211.6
2014-Oct-21 17:31N 59°56' E 026°12'3911.5
2014-Oct-21 14:11N 59°47' E 024°57'711.4
2014-Oct-21 13:33N 59°45' E 024°44'1611.4
2014-Oct-21 12:08N 59°41' E 024°12'611.2
2014-Oct-21 11:33N 59°39' E 024°00'1211.5
2014-Oct-21 10:33N 59°36' E 023°39'1211.7
2014-Oct-21 09:33N 59°33' E 023°16'30112.0
2014-Oct-20 08:28N 55°59' E 016°37'1212.7
2014-Oct-20 07:34N 55°53' E 016°19'1512.7
2014-Oct-20 06:24N 55°45' E 015°57'1612.7
2014-Oct-20 05:11N 55°37' E 015°34'812.7
2014-Oct-20 04:32N 55°32' E 015°22'1212.7
2014-Oct-20 03:34N 55°25' E 015°04'1111.5
2014-Oct-20 02:34N 55°18' E 014°49'1212.0
2014-Oct-20 01:33N 55°12' E 014°31'1313.0
2014-Oct-20 00:33N 55°04' E 014°13'1313.0
2014-Oct-19 23:33N 54°58' E 013°53'1313.2
2014-Oct-19 22:33N 54°54' E 013°31'2712.9
2014-Oct-19 20:30N 54°45' E 012°48'3233.8
2014-Oct-19 19:32N 54°25' E 012°03'7 6.1
2014-Oct-19 18:26N 54°28' E 012°13'1011.6
2014-Oct-19 17:33N 54°25' E 011°57'4112.7
2014-Oct-19 14:17N 54°42' E 010°52'116 3.6
2014-Oct-18 06:08N 56°35' E 011°40'813.3
2014-Oct-18 05:33N 56°41' E 011°47'1212.0
2014-Oct-18 04:31N 56°54' E 011°45'1212.9
2014-Oct-18 03:33N 57°05' E 011°38'1212.4
2014-Oct-18 02:34N 57°17' E 011°30'1212.5
2014-Oct-18 01:34N 57°28' E 011°20'1312.5
2014-Oct-18 00:33N 57°37' E 011°03'1212.4
2014-Oct-17 23:33N 57°45' E 010°45'6 6.3
2014-Oct-17 22:33N 57°48' E 010°35'1111.3
2014-Oct-17 21:34N 57°48' E 010°14'1211.9
2014-Oct-17 20:33N 57°46' E 009°51'25111.9
2014-Oct-16 23:23N 54°24' E 005°26'1212.7
2014-Oct-16 22:27N 54°15' E 005°12'1112.6
2014-Oct-16 21:33N 54°07' E 004°58'1312.6
2014-Oct-16 20:33N 53°59' E 004°43'11710.7
2014-Oct-16 09:33N 52°09' E 003°31'1212.4
2014-Oct-16 08:33N 52°04' E 003°49'1010.3
2014-Oct-16 07:33N 51°59' E 004°04'4 4.1
2014-Oct-16 06:32N 51°56' E 004°10'0 0.0
2014-Oct-16 05:29N 51°56' E 004°10'0 0.0
2014-Oct-16 04:32N 51°56' E 004°10'0 0.0
2014-Oct-16 03:32N 51°56' E 004°10'0 0.0
2014-Oct-16 02:32N 51°56' E 004°10'0 0.0
2014-Oct-16 01:32N 51°56' E 004°10'0 0.0
2014-Oct-16 00:29N 51°56' E 004°10'0 0.0
2014-Oct-15 23:32N 51°56' E 004°10'0 0.0
2014-Oct-15 22:26N 51°56' E 004°10'0 0.0
2014-Oct-15 21:29N 51°56' E 004°10'0 0.0
2014-Oct-15 20:29N 51°56' E 004°10'0 0.0
2014-Oct-15 19:29N 51°56' E 004°10'0 0.0
2014-Oct-15 18:32N 51°56' E 004°10'0 0.0
2014-Oct-15 17:29N 51°56' E 004°10'0 0.0
2014-Oct-15 16:32N 51°56' E 004°10'0 0.0
2014-Oct-15 15:32N 51°56' E 004°10'0 0.0
2014-Oct-15 14:26N 51°56' E 004°10'0 0.0
2014-Oct-15 13:26N 51°56' E 004°10'0 0.0
2014-Oct-15 12:29N 51°56' E 004°10'0 0.0
2014-Oct-15 11:29N 51°56' E 004°10'0 0.0
2014-Oct-15 10:32N 51°56' E 004°10'0 0.0
2014-Oct-15 09:29N 51°56' E 004°10'0 0.0
2014-Oct-15 08:20N 51°56' E 004°10'0 0.0
2014-Oct-15 07:29N 51°56' E 004°10'0 0.0
2014-Oct-15 06:26N 51°56' E 004°10'0 0.0
2014-Oct-15 05:29N 51°56' E 004°10'0 0.0
2014-Oct-15 04:32N 51°56' E 004°10'0 0.0
2014-Oct-15 03:32N 51°56' E 004°10'0 0.0
2014-Oct-15 02:33N 51°56' E 004°10'1 1.4
2014-Oct-15 01:33N 51°58' E 004°08'10 9.6
2014-Oct-15 00:33N 51°60' E 003°53'7 7.5
2014-Oct-14 23:33N 51°58' E 003°41'9 7.2
2014-Oct-14 22:22N 51°55' E 003°28'3 3.8
2014-Oct-14 21:31N 51°53' E 003°25'0 0.3
2014-Oct-14 20:32N 51°53' E 003°25'0 0.1
2014-Oct-14 19:23N 51°53' E 003°25'  
Track history (hours):
 
Tides and Currents Weather Stations Pressure Air Temp Water Temp Dewpoint Dewpoint Depression Visibility Wind Speed Wind Dir Waves Ship Positions

Stena Atlantica

Last reported at 2014-Oct-24 17:33 UTC. Time now 2014-Oct-24 18:05 UTC.
Position N 60°01' E 026°32'.

Length 245 m; draft 14.9 m.

Type: Tanker. MMSI: 319161000.

Date/timePositionNaut miles runAvg speedWind from/ knotsBaromVisibWave heightAir tempDewpointWater temp
2014-Oct-24 17:33N 60°01' E 026°32'1312.0
2014-Oct-24 16:30N 59°60' E 026°57'  
2014-Oct-21 20:21N 60°01' E 027°15'1111.0
2014-Oct-21 19:23N 59°58' E 026°55'1011.5
2014-Oct-21 18:33N 59°59' E 026°35'1211.6
2014-Oct-21 17:31N 59°56' E 026°12'3911.5
2014-Oct-21 14:11N 59°47' E 024°57'711.4
2014-Oct-21 13:33N 59°45' E 024°44'1611.4
2014-Oct-21 12:08N 59°41' E 024°12'611.2
2014-Oct-21 11:33N 59°39' E 024°00'1211.5
2014-Oct-21 10:33N 59°36' E 023°39'1211.7
2014-Oct-21 09:33N 59°33' E 023°16'30112.0
2014-Oct-20 08:28N 55°59' E 016°37'1212.7
2014-Oct-20 07:34N 55°53' E 016°19'1512.7
2014-Oct-20 06:24N 55°45' E 015°57'1612.7
2014-Oct-20 05:11N 55°37' E 015°34'812.7
2014-Oct-20 04:32N 55°32' E 015°22'1212.7
2014-Oct-20 03:34N 55°25' E 015°04'1111.5
2014-Oct-20 02:34N 55°18' E 014°49'1212.0
2014-Oct-20 01:33N 55°12' E 014°31'1313.0
2014-Oct-20 00:33N 55°04' E 014°13'1313.0
2014-Oct-19 23:33N 54°58' E 013°53'1313.2
2014-Oct-19 22:33N 54°54' E 013°31'2712.9
2014-Oct-19 20:30N 54°45' E 012°48'3233.8
2014-Oct-19 19:32N 54°25' E 012°03'7 6.1
2014-Oct-19 18:26N 54°28' E 012°13'1011.6
2014-Oct-19 17:33N 54°25' E 011°57'4112.7
2014-Oct-19 14:17N 54°42' E 010°52'116 3.6
2014-Oct-18 06:08N 56°35' E 011°40'813.3
2014-Oct-18 05:33N 56°41' E 011°47'1212.0
2014-Oct-18 04:31N 56°54' E 011°45'1212.9
2014-Oct-18 03:33N 57°05' E 011°38'1212.4
2014-Oct-18 02:34N 57°17' E 011°30'1212.5
2014-Oct-18 01:34N 57°28' E 011°20'1312.5
2014-Oct-18 00:33N 57°37' E 011°03'1212.4
2014-Oct-17 23:33N 57°45' E 010°45'6 6.3
2014-Oct-17 22:33N 57°48' E 010°35'1111.3
2014-Oct-17 21:34N 57°48' E 010°14'1211.9
2014-Oct-17 20:33N 57°46' E 009°51'25111.9
2014-Oct-16 23:23N 54°24' E 005°26'1212.7
2014-Oct-16 22:27N 54°15' E 005°12'1112.6
2014-Oct-16 21:33N 54°07' E 004°58'1312.6
2014-Oct-16 20:33N 53°59' E 004°43'11710.7
2014-Oct-16 09:33N 52°09' E 003°31'1212.4
2014-Oct-16 08:33N 52°04' E 003°49'1010.3
2014-Oct-16 07:33N 51°59' E 004°04'4 4.1
2014-Oct-16 06:32N 51°56' E 004°10'0 0.0
2014-Oct-16 05:29N 51°56' E 004°10'0 0.0
2014-Oct-16 04:32N 51°56' E 004°10'0 0.0
2014-Oct-16 03:32N 51°56' E 004°10'0 0.0
2014-Oct-16 02:32N 51°56' E 004°10'0 0.0
2014-Oct-16 01:32N 51°56' E 004°10'0 0.0
2014-Oct-16 00:29N 51°56' E 004°10'0 0.0
2014-Oct-15 23:32N 51°56' E 004°10'0 0.0
2014-Oct-15 22:26N 51°56' E 004°10'0 0.0
2014-Oct-15 21:29N 51°56' E 004°10'0 0.0
2014-Oct-15 20:29N 51°56' E 004°10'0 0.0
2014-Oct-15 19:29N 51°56' E 004°10'0 0.0
2014-Oct-15 18:32N 51°56' E 004°10'0 0.0
2014-Oct-15 17:29N 51°56' E 004°10'0 0.0
2014-Oct-15 16:32N 51°56' E 004°10'0 0.0
2014-Oct-15 15:32N 51°56' E 004°10'0 0.0
2014-Oct-15 14:26N 51°56' E 004°10'0 0.0
2014-Oct-15 13:26N 51°56' E 004°10'0 0.0
2014-Oct-15 12:29N 51°56' E 004°10'0 0.0
2014-Oct-15 11:29N 51°56' E 004°10'0 0.0
2014-Oct-15 10:32N 51°56' E 004°10'0 0.0
2014-Oct-15 09:29N 51°56' E 004°10'0 0.0
2014-Oct-15 08:20N 51°56' E 004°10'0 0.0
2014-Oct-15 07:29N 51°56' E 004°10'0 0.0
2014-Oct-15 06:26N 51°56' E 004°10'0 0.0
2014-Oct-15 05:29N 51°56' E 004°10'0 0.0
2014-Oct-15 04:32N 51°56' E 004°10'0 0.0
2014-Oct-15 03:32N 51°56' E 004°10'0 0.0
2014-Oct-15 02:33N 51°56' E 004°10'1 1.4
2014-Oct-15 01:33N 51°58' E 004°08'10 9.6
2014-Oct-15 00:33N 51°60' E 003°53'7 7.5
2014-Oct-14 23:33N 51°58' E 003°41'9 7.2
2014-Oct-14 22:22N 51°55' E 003°28'3 3.8
2014-Oct-14 21:31N 51°53' E 003°25'0 0.3
2014-Oct-14 20:32N 51°53' E 003°25'0 0.1
2014-Oct-14 19:23N 51°53' E 003°25'  

Dump ship's entire track history